Time;durP1;ratioP1;P1;durP2;ratioP2;P2;SDS_P1;SDS_P2;PMS_P1;PMS_P2;Temp;Humidity;BMP_temperature;BMP_pressure;BME280_temperature;BME280_humidity;BME280_pressure;Samples;Min_cycle;Max_cycle;Signal;HPM_P1;HPM_P2
2024/03/09 00:00:42;;;;;;;46.53;34.55;;;6.40;91.60;;;;;;2086376;28;20048;-68
2024/03/09 00:01:43;;;;;;;47.42;34.80;;;6.40;91.50;;;;;;2076042;28;20065;-68
2024/03/09 00:02:47;;;;;;;48.33;34.22;;;6.40;91.50;;;;;;2076430;28;20738;-67
2024/03/09 00:03:51;;;;;;;46.03;34.15;;;6.40;91.60;;;;;;2085442;28;20025;-67
2024/03/09 00:04:52;;;;;;;47.65;33.95;;;6.40;91.90;;;;;;2083118;28;20522;-67
2024/03/09 00:05:52;;;;;;;44.22;32.03;;;6.40;91.60;;;;;;2084670;28;20393;-67
2024/03/09 00:06:53;;;;;;;47.28;33.45;;;6.40;91.70;;;;;;2081528;28;20029;-67
2024/03/09 00:07:58;;;;;;;46.65;33.92;;;6.40;91.70;;;;;;2082706;28;20068;-68
2024/03/09 00:08:59;;;;;;;46.42;33.80;;;6.40;91.80;;;;;;2085166;28;20513;-68
2024/03/09 00:10:00;;;;;;;50.60;35.35;;;6.30;91.80;;;;;;2082877;28;20026;-68
2024/03/09 00:11:01;;;;;;;50.00;34.10;;;6.30;91.80;;;;;;2083281;28;20120;-67
2024/03/09 00:12:04;;;;;;;44.22;34.00;;;6.30;91.80;;;;;;2083718;28;20108;-67
2024/03/09 00:13:04;;;;;;;43.83;33.10;;;6.40;91.90;;;;;;2083579;28;20034;-69
2024/03/09 00:14:06;;;;;;;45.55;34.70;;;6.30;91.80;;;;;;2086292;28;20071;-68
2024/03/09 00:15:13;;;;;;;46.35;35.50;;;6.30;91.90;;;;;;2086745;28;20028;-67
2024/03/09 00:16:14;;;;;;;51.80;35.55;;;6.30;92.00;;;;;;2086079;28;20026;-66
2024/03/09 00:17:16;;;;;;;46.33;36.15;;;6.30;92.00;;;;;;2086672;28;20079;-66
2024/03/09 00:18:17;;;;;;;45.67;34.45;;;6.30;92.00;;;;;;2085636;28;20052;-67
2024/03/09 00:19:21;;;;;;;46.30;34.25;;;6.30;92.10;;;;;;2084038;28;20091;-67
2024/03/09 00:20:32;;;;;;;49.05;35.10;;;6.30;92.10;;;;;;2084896;28;20022;-66
2024/03/09 00:21:34;;;;;;;47.50;33.00;;;6.30;92.10;;;;;;2075213;28;20033;-66
2024/03/09 00:22:37;;;;;;;46.75;33.63;;;6.30;92.10;;;;;;2072092;28;20049;-66
2024/03/09 00:23:38;;;;;;;45.65;33.72;;;6.30;92.20;;;;;;2077490;28;20366;-66
2024/03/09 00:24:38;;;;;;;43.83;33.03;;;6.30;92.20;;;;;;2076942;28;20061;-68
2024/03/09 00:25:40;;;;;;;47.80;35.15;;;6.20;92.30;;;;;;2077848;28;20030;-68
2024/03/09 00:26:42;;;;;;;47.58;34.28;;;6.20;92.30;;;;;;2071779;28;20380;-66
2024/03/09 00:27:43;;;;;;;50.47;36.00;;;6.20;92.30;;;;;;2070146;28;20030;-66
2024/03/09 00:28:45;;;;;;;45.50;34.00;;;6.20;92.30;;;;;;2079799;28;20033;-67
2024/03/09 00:29:45;;;;;;;45.42;34.33;;;6.20;92.30;;;;;;2074773;28;20393;-67
2024/03/09 00:30:46;;;;;;;52.25;33.83;;;6.20;92.40;;;;;;2077267;28;20033;-70
2024/03/09 00:31:47;;;;;;;49.17;35.38;;;6.20;92.40;;;;;;2077458;28;20036;-67
2024/03/09 00:32:53;;;;;;;44.38;33.03;;;6.20;92.40;;;;;;2074979;28;20229;-67
2024/03/09 00:33:55;;;;;;;44.13;33.10;;;6.20;92.50;;;;;;2068893;28;20038;-66
2024/03/09 00:34:55;;;;;;;50.50;35.45;;;6.20;92.40;;;;;;2070796;28;21118;-66
2024/03/09 00:35:56;;;;;;;44.22;33.47;;;6.20;92.40;;;;;;2068915;28;20029;-66
2024/03/09 00:36:58;;;;;;;45.85;33.60;;;6.20;92.50;;;;;;2061410;28;20033;-66
2024/03/09 00:37:59;;;;;;;45.20;34.53;;;6.20;92.60;;;;;;2068378;28;20058;-66
2024/03/09 00:38:59;;;;;;;48.20;35.40;;;6.20;92.60;;;;;;2077375;28;20585;-67
2024/03/09 00:40:00;;;;;;;46.85;34.88;;;6.20;92.60;;;;;;2077976;28;20425;-66
2024/03/09 00:41:01;;;;;;;44.15;33.72;;;6.20;92.70;;;;;;2069907;28;20036;-68
2024/03/09 00:42:03;;;;;;;49.00;35.58;;;6.10;92.70;;;;;;2069846;28;20120;-66
2024/03/09 00:43:06;;;;;;;49.38;34.55;;;6.10;92.70;;;;;;2076404;28;20099;-68
2024/03/09 00:44:07;;;;;;;45.30;33.30;;;6.10;92.80;;;;;;2079139;28;20067;-67
2024/03/09 00:45:09;;;;;;;47.97;34.85;;;6.10;92.80;;;;;;2078736;28;20478;-66
2024/03/09 00:46:13;;;;;;;46.85;33.90;;;6.10;92.90;;;;;;2080079;28;20857;-66
2024/03/09 00:47:14;;;;;;;48.83;33.97;;;6.10;92.80;;;;;;2075443;28;20055;-68
2024/03/09 00:48:15;;;;;;;46.10;35.75;;;6.10;92.90;;;;;;2078216;28;20026;-67
2024/03/09 00:49:18;;;;;;;45.33;34.58;;;6.10;92.90;;;;;;2075822;28;20104;-67
2024/03/09 00:50:21;;;;;;;46.15;35.13;;;6.10;93.00;;;;;;2077795;28;20043;-66
2024/03/09 00:51:21;;;;;;;46.38;34.58;;;6.10;93.00;;;;;;2076620;28;20017;-66
2024/03/09 00:52:25;;;;;;;44.90;34.63;;;6.10;93.00;;;;;;2076904;28;20475;-66
2024/03/09 00:53:26;;;;;;;48.53;36.08;;;6.00;92.90;;;;;;2078116;28;20112;-66
2024/03/09 00:54:26;;;;;;;46.45;33.25;;;6.00;92.90;;;;;;2080148;28;20041;-66
2024/03/09 00:55:27;;;;;;;47.55;34.42;;;6.00;93.00;;;;;;2076578;28;20036;-65
2024/03/09 00:56:29;;;;;;;45.85;34.58;;;6.00;93.00;;;;;;2069269;28;20026;-68
2024/03/09 00:57:33;;;;;;;49.85;36.00;;;6.00;93.00;;;;;;2069712;28;20070;-68
2024/03/09 00:58:35;;;;;;;48.08;35.53;;;6.00;93.10;;;;;;2077529;28;20017;-67
2024/03/09 00:59:36;;;;;;;47.05;35.88;;;6.00;93.10;;;;;;2076969;28;20057;-68
2024/03/09 01:00:37;;;;;;;46.83;35.47;;;6.00;93.10;;;;;;2079637;28;20021;-67
2024/03/09 01:01:37;;;;;;;47.28;33.85;;;6.00;93.10;;;;;;2077211;28;20394;-67
2024/03/09 01:02:41;;;;;;;48.33;34.30;;;6.00;93.20;;;;;;2072297;28;20033;-67
2024/03/09 01:03:45;;;;;;;47.00;33.92;;;6.00;93.30;;;;;;2070855;28;20038;-67
2024/03/09 01:04:48;;;;;;;45.53;34.15;;;6.00;93.20;;;;;;2075701;28;20050;-68
2024/03/09 01:05:48;;;;;;;48.15;34.58;;;6.00;93.30;;;;;;2076576;28;20054;-67
2024/03/09 01:06:54;;;;;;;45.38;34.35;;;6.00;93.30;;;;;;2077312;28;20049;-69
2024/03/09 01:07:54;;;;;;;44.38;33.85;;;6.00;93.30;;;;;;2077503;28;20533;-67
2024/03/09 01:08:56;;;;;;;45.17;34.47;;;6.00;93.30;;;;;;2077207;28;20029;-67
2024/03/09 01:09:57;;;;;;;47.45;34.70;;;5.90;93.30;;;;;;2080529;28;20025;-67
2024/03/09 01:10:57;;;;;;;49.67;35.97;;;5.90;93.40;;;;;;2077230;28;20025;-68
2024/03/09 01:11:58;;;;;;;49.92;35.38;;;5.90;93.40;;;;;;2079974;28;20040;-67
2024/03/09 01:12:59;;;;;;;45.50;34.20;;;5.90;93.40;;;;;;2076931;28;20137;-68
2024/03/09 01:14:02;;;;;;;45.50;34.22;;;5.90;93.40;;;;;;2077265;28;20487;-68
2024/03/09 01:15:06;;;;;;;47.75;35.65;;;5.90;93.50;;;;;;2078888;28;20022;-68
2024/03/09 01:16:07;;;;;;;54.25;36.35;;;5.90;93.50;;;;;;2076053;28;20033;-66
2024/03/09 01:17:07;;;;;;;47.35;34.55;;;5.90;93.50;;;;;;2077806;28;20021;-67
2024/03/09 01:18:08;;;;;;;49.28;35.08;;;5.90;93.50;;;;;;2078410;28;20026;-67
2024/03/09 01:19:09;;;;;;;49.58;36.05;;;5.80;93.60;;;;;;2077636;28;20076;-66
2024/03/09 01:20:10;;;;;;;47.70;35.08;;;5.90;93.70;;;;;;2077574;28;20447;-66
2024/03/09 01:21:10;;;;;;;47.95;33.13;;;5.80;93.60;;;;;;2076759;28;20029;-67
2024/03/09 01:22:12;;;;;;;49.63;34.67;;;5.80;93.70;;;;;;2074053;28;20061;-67
2024/03/09 01:23:14;;;;;;;47.65;34.75;;;5.80;93.80;;;;;;2069706;28;20227;-68
2024/03/09 01:24:15;;;;;;;41.72;33.17;;;5.80;93.80;;;;;;2067939;28;20026;-66
2024/03/09 01:25:16;;;;;;;47.03;35.20;;;5.80;93.90;;;;;;2071475;28;20045;-68
2024/03/09 01:26:16;;;;;;;46.85;35.30;;;5.70;93.90;;;;;;2068958;28;20056;-68
2024/03/09 01:27:18;;;;;;;46.75;34.58;;;5.80;93.90;;;;;;2068444;28;20029;-68
2024/03/09 01:28:19;;;;;;;47.03;34.45;;;5.70;94.00;;;;;;2068520;28;20026;-69
2024/03/09 01:29:20;;;;;;;51.08;34.38;;;5.70;94.00;;;;;;2069456;28;20032;-67
2024/03/09 01:30:21;;;;;;;48.30;34.95;;;5.70;94.10;;;;;;2069887;28;20361;-67
2024/03/09 01:31:27;;;;;;;48.42;35.38;;;5.70;94.10;;;;;;2067619;28;20073;-67
2024/03/09 01:32:28;;;;;;;48.28;34.08;;;5.70;94.40;;;;;;2063577;28;20491;-66
2024/03/09 01:33:29;;;;;;;47.72;35.42;;;5.70;94.20;;;;;;2055686;28;20570;-66
2024/03/09 01:34:30;;;;;;;52.65;35.05;;;5.70;94.20;;;;;;2062619;28;20062;-69
2024/03/09 01:35:30;;;;;;;51.42;36.38;;;5.70;94.20;;;;;;2070964;28;20033;-67
2024/03/09 01:36:31;;;;;;;46.97;35.03;;;5.70;94.30;;;;;;2070364;28;20025;-68
2024/03/09 01:37:32;;;;;;;48.90;34.58;;;5.70;94.30;;;;;;2069660;28;20042;-67
2024/03/09 01:38:32;;;;;;;45.47;35.22;;;5.60;94.30;;;;;;2069796;28;20108;-66
2024/03/09 01:39:33;;;;;;;48.47;35.50;;;5.60;94.30;;;;;;2068633;28;20018;-66
2024/03/09 01:40:34;;;;;;;48.28;35.25;;;5.60;94.40;;;;;;2070299;28;20588;-67
2024/03/09 01:41:35;;;;;;;50.50;35.53;;;5.60;94.40;;;;;;2069985;28;20040;-66
2024/03/09 01:42:36;;;;;;;49.05;35.50;;;5.60;94.50;;;;;;2064602;28;20117;-67
2024/03/09 01:43:36;;;;;;;46.28;33.90;;;5.60;94.50;;;;;;2063637;28;20120;-66
2024/03/09 01:44:37;;;;;;;48.50;34.40;;;5.60;94.50;;;;;;2066820;28;20060;-66
2024/03/09 01:45:38;;;;;;;50.58;34.53;;;5.60;94.60;;;;;;2069078;28;20022;-66
2024/03/09 01:46:38;;;;;;;51.25;36.15;;;5.60;94.90;;;;;;2059624;28;21711;-67
2024/03/09 01:47:39;;;;;;;46.35;34.25;;;5.60;94.60;;;;;;2056448;28;20497;-69
2024/03/09 01:48:41;;;;;;;48.67;35.75;;;5.60;94.70;;;;;;2060837;28;20030;-68
2024/03/09 01:49:42;;;;;;;47.35;35.80;;;5.60;94.70;;;;;;2068830;28;20022;-68
2024/03/09 01:50:43;;;;;;;47.25;35.45;;;5.60;94.70;;;;;;2068701;28;20038;-67
2024/03/09 01:51:47;;;;;;;48.92;35.05;;;5.60;94.80;;;;;;2071374;28;20034;-67
2024/03/09 01:52:50;;;;;;;47.53;35.05;;;5.50;94.80;;;;;;2070000;28;20495;-67
2024/03/09 01:53:53;;;;;;;48.10;33.83;;;5.60;94.90;;;;;;2071179;28;20033;-67
2024/03/09 01:54:55;;;;;;;51.28;35.25;;;5.50;94.90;;;;;;2068116;28;20033;-67
2024/03/09 01:55:59;;;;;;;49.13;34.53;;;5.50;95.00;;;;;;2068707;28;20105;-68
2024/03/09 01:57:00;;;;;;;44.65;34.83;;;5.50;95.00;;;;;;2071082;28;20436;-67
2024/03/09 01:58:02;;;;;;;48.75;35.42;;;5.50;95.00;;;;;;2068765;28;20034;-67
2024/03/09 01:59:07;;;;;;;47.97;35.40;;;5.50;95.00;;;;;;2068406;28;20088;-66
2024/03/09 02:00:09;;;;;;;47.90;36.38;;;5.50;95.10;;;;;;2071308;28;20030;-66
2024/03/09 02:01:22;;;;;;;47.95;36.03;;;5.50;95.20;;;;;;2067027;28;20072;-65
2024/03/09 02:02:23;;;;;;;48.13;35.03;;;5.50;95.20;;;;;;2069653;28;20265;-66
2024/03/09 02:03:23;;;;;;;47.58;35.67;;;5.50;95.30;;;;;;2068917;28;20065;-67
2024/03/09 02:04:26;;;;;;;49.38;35.63;;;5.40;95.20;;;;;;2068407;28;20022;-66
2024/03/09 02:05:28;;;;;;;48.60;35.50;;;5.50;95.30;;;;;;2061297;28;20010;-67
2024/03/09 02:06:30;;;;;;;52.10;35.75;;;5.40;95.30;;;;;;2060556;28;20042;-68
2024/03/09 02:07:33;;;;;;;44.83;34.50;;;5.50;95.50;;;;;;2069210;28;20164;-67
2024/03/09 02:08:33;;;;;;;49.40;35.47;;;5.50;95.40;;;;;;2068263;28;20402;-66
2024/03/09 02:09:34;;;;;;;49.80;35.13;;;5.40;95.40;;;;;;2071243;28;20026;-66
2024/03/09 02:10:35;;;;;;;47.72;35.55;;;5.50;95.40;;;;;;2069655;28;20092;-66
2024/03/09 02:11:36;;;;;;;50.22;35.88;;;5.40;95.40;;;;;;2068120;28;20018;-67
2024/03/09 02:12:37;;;;;;;45.45;34.63;;;5.40;95.50;;;;;;2070369;28;20112;-66
2024/03/09 02:13:38;;;;;;;47.72;36.38;;;5.40;95.60;;;;;;2070029;28;20026;-67
2024/03/09 02:14:41;;;;;;;49.30;35.42;;;5.40;95.60;;;;;;2070644;28;20045;-67
2024/03/09 02:15:47;;;;;;;48.55;34.90;;;5.40;95.50;;;;;;2071510;28;20064;-67
2024/03/09 02:16:49;;;;;;;50.42;36.90;;;5.40;95.70;;;;;;2071844;28;20053;-66
2024/03/09 02:17:50;;;;;;;50.20;36.83;;;5.40;95.60;;;;;;2070517;28;20053;-66
2024/03/09 02:18:51;;;;;;;49.20;35.65;;;5.40;95.60;;;;;;2068194;28;20026;-66
2024/03/09 02:19:57;;;;;;;47.42;36.38;;;5.40;95.60;;;;;;2067724;28;20064;-66
2024/03/09 02:21:00;;;;;;;50.42;34.25;;;5.40;95.70;;;;;;2069407;28;20034;-67
2024/03/09 02:22:01;;;;;;;48.38;35.83;;;5.40;95.70;;;;;;2072013;28;20041;-66
2024/03/09 02:23:02;;;;;;;49.47;34.92;;;5.40;95.60;;;;;;2074603;28;20029;-65
2024/03/09 02:24:11;;;;;;;47.92;35.88;;;5.40;95.70;;;;;;2075645;28;20029;-65
2024/03/09 02:25:12;;;;;;;51.72;37.25;;;5.40;95.80;;;;;;2075726;28;20081;-66
2024/03/09 02:26:17;;;;;;;49.45;36.53;;;5.40;95.70;;;;;;2078770;28;20082;-66
2024/03/09 02:27:20;;;;;;;53.38;37.15;;;5.40;95.70;;;;;;2077194;28;20038;-65
2024/03/09 02:28:22;;;;;;;47.33;35.08;;;5.40;95.70;;;;;;2074419;28;20030;-65
2024/03/09 02:29:23;;;;;;;49.60;36.63;;;5.40;95.70;;;;;;2074967;28;20021;-67
2024/03/09 02:30:27;;;;;;;50.95;35.50;;;5.40;95.60;;;;;;2077143;28;20034;-67
2024/03/09 02:31:27;;;;;;;52.33;35.88;;;5.40;95.60;;;;;;2069331;28;20089;-68
2024/03/09 02:32:30;;;;;;;48.55;36.33;;;5.30;95.60;;;;;;2069897;28;20826;-66
2024/03/09 02:33:30;;;;;;;47.63;34.90;;;5.40;95.60;;;;;;2075785;28;20022;-66
2024/03/09 02:34:31;;;;;;;49.90;36.53;;;5.30;95.50;;;;;;2075378;28;20140;-67
2024/03/09 02:35:32;;;;;;;47.88;34.40;;;5.30;95.60;;;;;;2075032;28;20017;-66
2024/03/09 02:36:34;;;;;;;49.50;35.92;;;5.30;95.60;;;;;;2079626;28;20061;-66
2024/03/09 02:37:35;;;;;;;49.33;35.78;;;5.30;95.60;;;;;;2077477;28;20026;-65
2024/03/09 02:38:35;;;;;;;48.60;34.85;;;5.30;95.60;;;;;;2077835;28;20053;-66
2024/03/09 02:39:36;;;;;;;50.55;35.22;;;5.30;95.70;;;;;;2074894;28;20688;-66
2024/03/09 02:40:39;;;;;;;46.75;34.35;;;5.30;95.70;;;;;;2076804;28;20014;-67
2024/03/09 02:41:40;;;;;;;52.25;36.85;;;5.30;95.70;;;;;;2075227;28;20029;-66
2024/03/09 02:43:04;;;;;;;50.05;36.03;;;5.30;95.70;;;;;;2076522;28;20075;-67
2024/03/09 02:44:02;;;;;;;49.20;35.72;;;5.30;95.70;;;;;;2077961;28;20394;-67
2024/03/09 02:45:03;;;;;;;49.67;35.72;;;5.20;95.80;;;;;;2075881;28;20116;-66
2024/03/09 02:46:04;;;;;;;49.97;36.65;;;5.30;95.70;;;;;;2075112;28;21170;-66
2024/03/09 02:47:05;;;;;;;48.05;34.78;;;5.30;95.70;;;;;;2075919;28;20900;-66
2024/03/09 02:48:06;;;;;;;50.03;35.53;;;5.30;95.70;;;;;;2076850;28;20034;-68
2024/03/09 02:49:10;;;;;;;50.20;35.63;;;5.30;95.70;;;;;;2079783;28;20139;-68
2024/03/09 02:50:11;;;;;;;45.92;35.25;;;5.30;95.70;;;;;;2076275;28;20035;-66
2024/03/09 02:51:12;;;;;;;47.17;34.53;;;5.20;95.70;;;;;;2075975;28;20508;-66
2024/03/09 02:52:13;;;;;;;49.83;34.35;;;5.30;95.70;;;;;;2074773;28;20418;-66
2024/03/09 02:53:13;;;;;;;49.47;35.22;;;5.20;95.70;;;;;;2075064;28;20053;-65
2024/03/09 02:54:15;;;;;;;48.85;36.10;;;5.20;95.80;;;;;;2075972;28;20033;-66
2024/03/09 02:55:16;;;;;;;49.05;36.15;;;5.20;95.80;;;;;;2076736;28;20033;-66
2024/03/09 02:56:20;;;;;;;49.33;35.08;;;5.20;95.70;;;;;;2076138;28;20071;-66
2024/03/09 02:57:21;;;;;;;48.03;34.25;;;5.20;95.70;;;;;;2077789;28;20026;-66
2024/03/09 02:58:22;;;;;;;45.55;34.83;;;5.20;95.80;;;;;;2076597;28;20254;-65
2024/03/09 02:59:22;;;;;;;48.13;34.95;;;5.20;95.90;;;;;;2076098;28;20478;-66
2024/03/09 03:00:26;;;;;;;56.95;36.30;;;5.10;95.90;;;;;;2074961;28;20339;-65
2024/03/09 03:01:27;;;;;;;52.42;36.35;;;5.20;95.90;;;;;;2075973;28;20033;-65
2024/03/09 03:03:49;;;;;;;46.22;35.20;;;5.10;96.00;;;;;;2077051;28;20029;-66
2024/03/09 03:04:50;;;;;;;46.72;34.67;;;5.10;96.10;;;;;;2078655;28;20018;-66
2024/03/09 03:05:52;;;;;;;50.60;36.38;;;5.00;96.10;;;;;;2077193;28;20053;-66
2024/03/09 03:06:53;;;;;;;50.00;36.00;;;5.00;96.10;;;;;;2069566;28;20030;-67
2024/03/09 03:07:53;;;;;;;45.95;34.88;;;5.00;96.10;;;;;;2056712;28;20118;-65
2024/03/09 03:08:57;;;;;;;49.00;34.92;;;5.00;96.20;;;;;;2062247;28;20042;-67
2024/03/09 03:09:58;;;;;;;51.63;35.72;;;5.00;96.20;;;;;;2076395;28;20026;-67
2024/03/09 03:11:00;;;;;;;47.83;35.70;;;5.00;96.20;;;;;;2076497;28;21595;-67
2024/03/09 03:12:01;;;;;;;48.22;35.40;;;5.00;96.20;;;;;;2076794;28;20067;-68
2024/03/09 03:13:04;;;;;;;51.58;35.92;;;5.00;96.20;;;;;;2079464;28;20088;-67
2024/03/09 03:14:05;;;;;;;49.55;35.13;;;5.00;96.30;;;;;;2075363;28;20024;-67
2024/03/09 03:15:10;;;;;;;43.65;32.40;;;5.00;96.30;;;;;;2076962;28;20521;-68
2024/03/09 03:16:35;;;;;;;48.85;36.00;;;5.00;96.40;;;;;;2073760;28;20130;-67
2024/03/09 03:17:36;;;;;;;44.42;33.72;;;4.90;96.30;;;;;;2078912;28;20057;-67
2024/03/09 03:18:37;;;;;;;44.65;32.53;;;4.90;96.30;;;;;;2077399;28;20137;-67
2024/03/09 03:19:38;;;;;;;48.55;34.47;;;4.90;96.20;;;;;;2072706;28;20041;-67
2024/03/09 03:20:38;;;;;;;47.83;34.95;;;4.90;96.20;;;;;;2067423;28;20034;-68
2024/03/09 03:21:39;;;;;;;42.05;32.22;;;4.90;96.10;;;;;;2076360;28;21217;-68
2024/03/09 03:22:40;;;;;;;44.05;32.15;;;4.90;96.10;;;;;;2077237;28;20034;-66
2024/03/09 03:23:42;;;;;;;44.60;32.05;;;4.90;96.00;;;;;;2074933;28;20489;-67
2024/03/09 03:24:43;;;;;;;44.90;33.50;;;4.90;95.90;;;;;;2076731;28;20033;-67
2024/03/09 03:25:44;;;;;;;40.13;29.80;;;4.90;95.80;;;;;;2075505;28;20028;-67
2024/03/09 03:26:46;;;;;;;43.63;32.35;;;4.90;95.70;;;;;;2075237;28;20043;-67
2024/03/09 03:27:47;;;;;;;48.22;34.15;;;4.90;95.60;;;;;;2075717;28;20470;-67
2024/03/09 03:28:49;;;;;;;41.25;31.27;;;4.90;95.60;;;;;;2066270;28;20434;-68
2024/03/09 03:29:51;;;;;;;43.83;31.70;;;4.90;95.60;;;;;;2068270;28;20061;-67
2024/03/09 03:30:52;;;;;;;45.00;32.38;;;4.90;95.60;;;;;;2076996;28;20041;-68
2024/03/09 03:31:55;;;;;;;42.03;30.20;;;4.90;95.50;;;;;;2075376;28;20037;-65
2024/03/09 03:32:55;;;;;;;44.42;33.58;;;4.80;95.40;;;;;;2076120;28;20026;-66
2024/03/09 03:33:56;;;;;;;44.50;33.72;;;4.80;95.40;;;;;;2079231;28;20057;-67
2024/03/09 03:34:57;;;;;;;49.42;32.38;;;4.80;95.50;;;;;;2078009;28;20036;-65
2024/03/09 03:36:01;;;;;;;45.38;32.63;;;4.80;95.50;;;;;;2071626;28;20541;-66
2024/03/09 03:37:04;;;;;;;41.13;31.75;;;4.80;95.50;;;;;;2062471;28;20038;-66
2024/03/09 03:38:06;;;;;;;43.65;32.58;;;4.80;95.40;;;;;;2068412;28;20110;-67
2024/03/09 03:39:12;;;;;;;38.85;29.73;;;4.80;95.30;;;;;;2074586;28;20645;-66
2024/03/09 03:40:17;;;;;;;43.35;32.45;;;4.80;95.20;;;;;;2077056;28;20042;-66
2024/03/09 03:41:22;;;;;;;43.05;31.75;;;4.70;95.00;;;;;;2066095;28;20018;-65
2024/03/09 03:42:22;;;;;;;40.20;30.60;;;4.70;95.00;;;;;;2067867;28;20150;-65
2024/03/09 03:43:23;;;;;;;40.42;31.70;;;4.70;94.90;;;;;;2075944;28;20063;-65
2024/03/09 03:44:26;;;;;;;42.00;31.08;;;4.70;94.80;;;;;;2075124;28;20459;-65
2024/03/09 03:45:26;;;;;;;41.08;31.42;;;4.70;94.70;;;;;;2077607;28;20026;-65
2024/03/09 03:46:27;;;;;;;38.95;31.15;;;4.70;94.70;;;;;;2076227;28;20031;-66
2024/03/09 03:47:28;;;;;;;43.30;32.00;;;4.70;94.80;;;;;;2076699;28;20022;-66
2024/03/09 03:48:29;;;;;;;43.45;32.20;;;4.70;95.00;;;;;;2075991;28;20021;-67
2024/03/09 03:49:31;;;;;;;39.92;30.45;;;4.60;95.10;;;;;;2075682;28;20029;-66
2024/03/09 03:50:32;;;;;;;46.97;31.67;;;4.60;95.10;;;;;;2076638;28;20034;-66
2024/03/09 03:51:33;;;;;;;46.13;33.47;;;4.60;95.10;;;;;;2075852;28;20022;-65
2024/03/09 03:52:34;;;;;;;42.42;30.17;;;4.60;95.20;;;;;;2075512;28;20025;-67
2024/03/09 03:53:35;;;;;;;46.30;33.17;;;4.60;95.30;;;;;;2078387;28;20026;-66
2024/03/09 03:54:36;;;;;;;42.85;30.83;;;4.60;95.40;;;;;;2075938;28;20026;-66
2024/03/09 03:55:40;;;;;;;45.78;30.73;;;4.60;95.40;;;;;;2076712;28;20026;-65
2024/03/09 03:56:42;;;;;;;42.25;31.27;;;4.50;95.40;;;;;;2077592;28;20057;-66
2024/03/09 03:57:42;;;;;;;43.45;31.05;;;4.60;95.40;;;;;;2075267;28;20022;-67
2024/03/09 03:58:44;;;;;;;41.08;31.27;;;4.60;95.40;;;;;;2076481;28;20029;-67
2024/03/09 03:59:44;;;;;;;40.22;31.67;;;4.60;95.40;;;;;;2076051;28;20062;-67
2024/03/09 04:00:47;;;;;;;42.38;31.55;;;4.60;95.50;;;;;;2075618;28;20029;-65
2024/03/09 04:01:48;;;;;;;44.00;31.73;;;4.50;95.60;;;;;;2076684;28;20049;-65
2024/03/09 04:02:50;;;;;;;44.25;31.00;;;4.50;95.60;;;;;;2075657;28;20072;-66
2024/03/09 04:03:50;;;;;;;42.10;30.95;;;4.50;95.70;;;;;;2076753;28;20022;-65
2024/03/09 04:04:51;;;;;;;44.08;32.47;;;4.50;95.70;;;;;;2077141;28;20061;-65
2024/03/09 04:05:53;;;;;;;38.85;29.60;;;4.50;95.70;;;;;;2061074;28;20860;-66
2024/03/09 04:06:53;;;;;;;41.75;30.63;;;4.50;95.80;;;;;;2062523;28;20035;-65
2024/03/09 04:07:54;;;;;;;48.50;32.60;;;4.50;95.80;;;;;;2078236;28;20036;-66
2024/03/09 04:08:57;;;;;;;48.92;32.53;;;4.50;95.90;;;;;;2074784;28;20850;-68
2024/03/09 04:09:57;;;;;;;43.80;31.88;;;4.50;96.00;;;;;;2075775;28;20056;-65
2024/03/09 04:11:00;;;;;;;42.83;31.15;;;4.40;96.20;;;;;;2076702;28;20060;-66
2024/03/09 04:12:00;;;;;;;42.90;32.00;;;4.50;96.40;;;;;;2076398;28;20040;-66
2024/03/09 04:13:01;;;;;;;43.47;31.75;;;4.50;96.50;;;;;;2077578;28;20076;-66
2024/03/09 04:14:01;;;;;;;43.22;32.53;;;4.40;96.50;;;;;;2077656;28;20462;-67
2024/03/09 04:15:03;;;;;;;46.35;33.40;;;4.40;96.60;;;;;;2075421;28;20040;-67
2024/03/09 04:16:04;;;;;;;44.35;32.25;;;4.40;96.60;;;;;;2076630;28;20026;-66
2024/03/09 04:17:05;;;;;;;44.03;33.28;;;4.50;96.70;;;;;;2075795;28;20038;-66
2024/03/09 04:18:06;;;;;;;46.45;32.30;;;4.40;96.80;;;;;;2076645;28;20057;-67
2024/03/09 04:19:07;;;;;;;48.17;33.03;;;4.50;96.90;;;;;;2075561;28;20033;-66
2024/03/09 04:20:08;;;;;;;41.67;29.70;;;4.40;97.00;;;;;;2076888;28;20124;-67
2024/03/09 04:21:12;;;;;;;42.63;32.20;;;4.40;97.00;;;;;;2075724;28;20026;-66
2024/03/09 04:22:18;;;;;;;40.28;30.85;;;4.40;96.90;;;;;;2068969;28;20076;-66
2024/03/09 04:23:18;;;;;;;39.22;30.80;;;4.40;96.80;;;;;;2066255;28;20026;-66
2024/03/09 04:24:19;;;;;;;45.25;31.67;;;4.50;96.80;;;;;;2078937;28;20053;-66
2024/03/09 04:25:19;;;;;;;43.17;32.10;;;4.50;96.80;;;;;;2075435;28;20032;-66
2024/03/09 04:26:21;;;;;;;42.30;31.45;;;4.50;97.00;;;;;;2070363;28;20549;-67
2024/03/09 04:27:21;;;;;;;43.17;32.60;;;4.50;97.00;;;;;;2068314;28;20030;-66
2024/03/09 04:28:22;;;;;;;44.47;33.97;;;4.50;97.00;;;;;;2076841;28;20030;-67
2024/03/09 04:29:23;;;;;;;44.22;32.13;;;4.50;97.10;;;;;;2068913;28;20026;-66
2024/03/09 04:30:25;;;;;;;44.22;32.53;;;4.40;97.20;;;;;;2061982;28;20038;-66
2024/03/09 04:31:26;;;;;;;46.53;32.92;;;4.40;97.30;;;;;;2067777;28;20591;-66
2024/03/09 04:32:30;;;;;;;47.65;33.58;;;4.40;97.40;;;;;;2078322;28;20075;-66
2024/03/09 04:33:31;;;;;;;47.85;33.20;;;4.40;97.60;;;;;;2067205;28;20034;-66
2024/03/09 04:34:33;;;;;;;46.25;33.35;;;4.40;97.60;;;;;;2069417;28;20029;-66
2024/03/09 04:35:41;;;;;;;45.17;32.65;;;4.40;97.60;;;;;;2075388;28;20530;-66
2024/03/09 04:36:45;;;;;;;44.65;32.20;;;4.40;97.70;;;;;;2075471;28;20087;-66
2024/03/09 04:37:46;;;;;;;44.00;31.88;;;4.40;97.70;;;;;;2076115;28;20116;-66
2024/03/09 04:38:47;;;;;;;40.78;30.45;;;4.40;97.70;;;;;;2076761;28;20056;-66
2024/03/09 04:39:49;;;;;;;40.40;29.88;;;4.40;97.70;;;;;;2076078;28;20037;-67
2024/03/09 04:40:53;;;;;;;40.60;30.00;;;4.40;97.60;;;;;;2070107;28;20030;-66
2024/03/09 04:41:56;;;;;;;41.17;30.70;;;4.40;97.60;;;;;;2068381;28;20038;-68
2024/03/09 04:42:56;;;;;;;37.63;28.88;;;4.40;97.40;;;;;;2075272;28;20098;-65
2024/03/09 04:43:57;;;;;;;40.25;29.25;;;4.40;97.30;;;;;;2074990;28;20048;-66
2024/03/09 04:44:57;;;;;;;39.20;29.90;;;4.40;97.30;;;;;;2076910;28;20374;-65
2024/03/09 04:45:58;;;;;;;35.30;28.63;;;4.50;97.30;;;;;;2075674;28;20021;-66
2024/03/09 04:46:58;;;;;;;40.65;30.02;;;4.50;97.30;;;;;;2074431;28;20021;-66
2024/03/09 04:48:04;;;;;;;38.63;28.83;;;4.50;97.20;;;;;;2075806;28;20075;-65
2024/03/09 04:49:05;;;;;;;39.17;27.95;;;4.50;97.20;;;;;;2067856;28;20025;-67
2024/03/09 04:50:08;;;;;;;38.38;27.83;;;4.40;97.10;;;;;;2058515;28;20066;-67
2024/03/09 04:51:08;;;;;;;40.95;31.13;;;4.40;97.00;;;;;;2065624;28;20117;-66
2024/03/09 04:52:12;;;;;;;36.78;28.15;;;4.40;97.00;;;;;;2077806;28;20037;-67
2024/03/09 04:53:13;;;;;;;35.92;27.27;;;4.40;97.10;;;;;;2077666;28;20120;-66
2024/03/09 04:54:14;;;;;;;45.80;32.03;;;4.40;97.00;;;;;;2065782;28;20464;-66
2024/03/09 04:55:21;;;;;;;40.03;29.55;;;4.40;97.00;;;;;;2066240;28;20029;-66
2024/03/09 04:56:22;;;;;;;37.92;28.85;;;4.40;97.00;;;;;;2078832;28;20030;-66
2024/03/09 04:57:31;;;;;;;38.13;27.38;;;4.40;96.90;;;;;;2078284;28;20489;-67
2024/03/09 04:58:35;;;;;;;42.33;30.23;;;4.40;96.80;;;;;;2075563;28;20398;-66
2024/03/09 04:59:39;;;;;;;34.15;26.73;;;4.40;96.80;;;;;;2072581;28;20042;-66
2024/03/09 05:00:43;;;;;;;33.17;26.35;;;4.40;96.70;;;;;;2078785;28;20065;-66
2024/03/09 05:01:47;;;;;;;35.97;27.40;;;4.40;96.70;;;;;;2077051;28;20033;-66
2024/03/09 05:02:49;;;;;;;36.13;27.85;;;4.40;96.60;;;;;;2068291;28;20514;-65
2024/03/09 05:03:50;;;;;;;39.35;29.25;;;4.40;96.60;;;;;;2068495;28;20034;-67
2024/03/09 05:04:50;;;;;;;41.45;29.58;;;4.40;96.50;;;;;;2078024;28;20106;-65
2024/03/09 05:05:51;;;;;;;40.28;28.13;;;4.30;96.40;;;;;;2076407;28;20057;-66
2024/03/09 05:06:51;;;;;;;34.45;26.60;;;4.30;96.40;;;;;;2075391;28;20072;-66
2024/03/09 05:07:52;;;;;;;35.33;25.02;;;4.30;96.30;;;;;;2076074;28;20541;-66
2024/03/09 05:08:52;;;;;;;36.08;27.67;;;4.30;96.20;;;;;;2076903;28;20049;-65
2024/03/09 05:09:53;;;;;;;37.55;27.95;;;4.30;96.10;;;;;;2077162;28;20481;-65
2024/03/09 05:10:53;;;;;;;38.80;28.05;;;4.30;96.20;;;;;;2074554;28;20077;-66
2024/03/09 05:11:54;;;;;;;39.65;29.17;;;4.30;96.20;;;;;;2076837;28;20379;-65
2024/03/09 05:12:55;;;;;;;36.40;27.60;;;4.30;96.20;;;;;;2075060;28;20504;-66
2024/03/09 05:13:56;;;;;;;39.25;28.60;;;4.30;96.20;;;;;;2077320;28;20117;-66
2024/03/09 05:14:58;;;;;;;40.80;28.33;;;4.30;96.10;;;;;;2076944;28;20431;-65
2024/03/09 05:15:59;;;;;;;37.50;28.02;;;4.20;96.10;;;;;;2076308;28;20557;-66
2024/03/09 05:16:59;;;;;;;34.08;25.75;;;4.20;96.00;;;;;;2076674;28;20944;-66
2024/03/09 05:18:02;;;;;;;39.88;29.58;;;4.20;95.90;;;;;;2077092;28;20017;-66
2024/03/09 05:19:05;;;;;;;35.92;27.52;;;4.20;95.90;;;;;;2070665;28;20036;-65